createdAt,value
2023-03-25T00:00:18.205Z,9.20
2023-03-25T00:02:49.353Z,8.15
2023-03-25T00:05:20.351Z,8.23
2023-03-25T00:07:52.375Z,7.78
2023-03-25T00:10:19.899Z,8.00
2023-03-25T00:12:47.437Z,7.10
2023-03-25T00:15:16.596Z,10.68
2023-03-25T00:17:44.374Z,7.85
2023-03-25T00:20:12.736Z,9.30
2023-03-25T00:22:42.715Z,8.45
2023-03-25T00:25:16.581Z,7.85
2023-03-25T00:27:46.569Z,9.07
2023-03-25T00:30:16.692Z,8.63
2023-03-25T00:32:50.350Z,11.98
2023-03-25T00:35:19.894Z,9.48
2023-03-25T00:37:52.453Z,8.73
2023-03-25T00:40:19.807Z,9.60
2023-03-25T00:42:50.318Z,8.75
2023-03-25T00:45:17.675Z,12.07
2023-03-25T00:47:45.108Z,12.23
2023-03-25T00:50:12.862Z,11.57
2023-03-25T00:52:40.528Z,7.22
2023-03-25T00:55:08.634Z,9.82
2023-03-25T00:57:36.570Z,9.32
2023-03-25T01:00:08.647Z,9.32
2023-03-25T01:02:36.264Z,7.63
2023-03-25T01:05:04.455Z,8.48
2023-03-25T01:07:32.293Z,9.20
2023-03-25T01:10:00.343Z,10.00
2023-03-25T01:12:27.961Z,10.13
2023-03-25T01:14:55.252Z,10.38
2023-03-25T01:38:09.212Z,9.77
2023-03-25T01:40:36.433Z,8.13
2023-03-25T01:43:03.630Z,11.03
2023-03-25T01:45:35.171Z,8.93
2023-03-25T02:06:59.803Z,10.33
2023-03-25T02:09:30.046Z,9.53
2023-03-25T02:11:57.216Z,9.93
2023-03-25T02:14:32.583Z,12.03
2023-03-25T02:17:35.628Z,13.50
2023-03-25T02:20:49.382Z,7.63
2023-03-25T02:23:28.554Z,9.53
2023-03-25T02:26:29.851Z,10.43
2023-03-25T02:29:12.823Z,10.90
2023-03-25T02:32:18.802Z,11.07
2023-03-25T02:35:26.948Z,12.00
2023-03-25T02:38:24.871Z,12.40
2023-03-25T02:41:30.399Z,11.90
2023-03-25T02:44:45.326Z,9.70
2023-03-25T02:47:19.812Z,11.17
2023-03-25T02:50:27.549Z,13.33
2023-03-25T02:53:02.802Z,10.43
2023-03-25T02:55:31.669Z,13.47
2023-03-25T02:58:01.810Z,10.40
2023-03-25T03:00:30.434Z,10.43
2023-03-25T03:03:04.585Z,11.03
2023-03-25T03:05:49.033Z,14.17
2023-03-25T03:08:56.989Z,13.57
2023-03-25T03:11:55.952Z,11.33
2023-03-25T03:15:01.307Z,11.97
2023-03-25T03:17:52.322Z,11.63
2023-03-25T03:20:55.751Z,10.63
2023-03-25T03:23:37.194Z,11.97
2023-03-25T03:26:18.540Z,10.30
2023-03-25T03:28:55.589Z,10.50
2023-03-25T03:31:50.729Z,11.27
2023-03-25T03:34:36.664Z,11.40
2023-03-25T03:37:05.900Z,9.73
2023-03-25T03:39:36.992Z,11.97
2023-03-25T03:42:27.626Z,9.90
2023-03-25T03:45:02.848Z,12.60
2023-03-25T03:47:36.900Z,13.50
2023-03-25T03:50:10.936Z,11.23
2023-03-25T03:52:51.135Z,13.70
2023-03-25T03:55:30.562Z,11.47
2023-03-25T03:58:06.949Z,11.30
2023-03-25T04:00:51.141Z,12.97
2023-03-25T04:03:30.474Z,10.83
2023-03-25T04:06:21.187Z,12.30
2023-03-25T04:09:00.327Z,13.60
2023-03-25T04:11:44.609Z,13.90
2023-03-25T04:14:13.514Z,13.50
2023-03-25T04:16:41.567Z,15.90
2023-03-25T04:19:09.501Z,13.43
2023-03-25T04:21:36.567Z,12.50
2023-03-25T04:24:04.829Z,13.97
2023-03-25T04:26:34.302Z,14.40
2023-03-25T04:29:02.457Z,11.97
2023-03-25T04:31:33.500Z,13.57
2023-03-25T04:34:02.698Z,17.27
2023-03-25T04:36:33.893Z,13.20
2023-03-25T04:39:01.593Z,11.70
2023-03-25T04:41:29.329Z,12.37
2023-03-25T04:43:56.414Z,12.87
2023-03-25T04:46:23.986Z,11.67
2023-03-25T04:48:53.862Z,12.50
2023-03-25T04:51:23.403Z,14.50
2023-03-25T04:53:50.647Z,15.43
2023-03-25T04:56:18.962Z,16.17
2023-03-25T04:58:46.658Z,13.70
2023-03-25T05:01:32.621Z,17.83
2023-03-25T05:04:06.806Z,14.33
2023-03-25T05:06:35.523Z,14.43
2023-03-25T05:09:05.256Z,11.47
2023-03-25T05:11:34.623Z,10.73
2023-03-25T05:14:01.779Z,15.13
2023-03-25T05:16:29.553Z,14.70
2023-03-25T05:18:56.658Z,14.37
2023-03-25T05:21:23.966Z,15.83
2023-03-25T05:23:52.712Z,13.73
2023-03-25T05:26:20.910Z,16.00
2023-03-25T05:28:51.488Z,12.23
2023-03-25T05:31:19.223Z,14.50
2023-03-25T05:33:46.374Z,12.63
2023-03-25T05:36:16.480Z,14.53
2023-03-25T05:38:44.548Z,12.23
2023-03-25T05:41:16.560Z,12.40
2023-03-25T05:43:47.532Z,14.13
2023-03-25T05:46:15.637Z,15.27
2023-03-25T05:48:43.134Z,13.03
2023-03-25T05:51:21.783Z,11.83
2023-03-25T05:53:50.097Z,12.40
2023-03-25T05:56:19.820Z,14.33
2023-03-25T05:58:48.771Z,15.50
2023-03-25T06:01:32.113Z,17.33
2023-03-25T06:04:01.894Z,12.97
2023-03-25T06:06:30.229Z,17.70
2023-03-25T06:08:57.858Z,16.17
2023-03-25T06:11:24.947Z,12.27
2023-03-25T06:13:52.181Z,14.10
2023-03-25T06:16:22.573Z,18.60
2023-03-25T06:18:56.406Z,14.67
2023-03-25T06:21:24.276Z,15.73
2023-03-25T06:23:51.733Z,15.40
2023-03-25T06:26:20.479Z,15.87
2023-03-25T06:28:48.510Z,14.40
2023-03-25T06:31:22.709Z,14.00
2023-03-25T06:33:51.326Z,13.13
2023-03-25T06:36:20.428Z,15.53
2023-03-25T06:38:51.073Z,13.38
2023-03-25T06:41:20.509Z,13.20
2023-03-25T06:43:49.144Z,15.50
2023-03-25T06:46:17.075Z,13.88
2023-03-25T06:48:44.379Z,14.30
2023-03-25T06:51:11.877Z,13.40
2023-03-25T06:53:39.160Z,15.23
2023-03-25T06:56:07.021Z,13.68
2023-03-25T06:58:37.277Z,16.50
2023-03-25T07:01:07.707Z,13.80
2023-03-25T07:03:36.801Z,12.40
2023-03-25T07:06:06.546Z,14.75
2023-03-25T07:08:34.322Z,12.10
2023-03-25T07:11:07.695Z,15.13
2023-03-25T07:13:35.386Z,15.02
2023-03-25T07:16:03.271Z,13.07
2023-03-25T07:18:30.971Z,15.85
2023-03-25T07:20:58.321Z,12.15
2023-03-25T07:23:25.795Z,17.73
2023-03-25T07:25:53.537Z,13.75
2023-03-25T07:28:20.791Z,13.35
2023-03-25T07:30:47.965Z,14.30
2023-03-25T07:33:15.564Z,14.13
2023-03-25T07:35:42.858Z,13.50
2023-03-25T07:38:10.228Z,13.15
2023-03-25T07:40:37.787Z,14.25
2023-03-25T07:43:05.407Z,15.40
2023-03-25T07:45:44.615Z,11.45
2023-03-25T07:48:14.944Z,14.35
2023-03-25T07:50:43.471Z,12.68
2023-03-25T07:53:11.741Z,15.10
2023-03-25T07:55:38.952Z,10.13
2023-03-25T07:58:06.071Z,11.68
2023-03-25T08:00:33.524Z,12.15
2023-03-25T08:03:00.883Z,12.95
2023-03-25T08:05:28.377Z,10.20
2023-03-25T08:07:55.724Z,12.13
2023-03-25T08:10:22.874Z,11.75
2023-03-25T08:12:56.556Z,15.02
2023-03-25T08:15:24.970Z,12.45
2023-03-25T08:17:52.638Z,12.02
2023-03-25T08:20:20.826Z,12.25
2023-03-25T08:22:48.228Z,11.52
2023-03-25T08:25:15.433Z,10.85
2023-03-25T08:27:42.507Z,11.48
2023-03-25T08:30:10.623Z,13.82
2023-03-25T08:32:38.632Z,11.25
2023-03-25T08:35:07.542Z,12.30
2023-03-25T08:37:35.514Z,9.07
2023-03-25T08:40:10.427Z,10.50
2023-03-25T08:42:38.294Z,11.10
2023-03-25T08:45:07.217Z,12.68
2023-03-25T08:47:34.437Z,12.98
2023-03-25T08:50:02.105Z,12.23
2023-03-25T08:52:29.631Z,10.55
2023-03-25T08:54:57.147Z,16.15
2023-03-25T08:57:24.509Z,12.10
2023-03-25T08:59:52.169Z,11.85
2023-03-25T09:02:19.916Z,11.98
2023-03-25T09:04:49.497Z,9.80
2023-03-25T09:07:19.877Z,6.70
2023-03-25T09:09:47.231Z,12.23
2023-03-25T09:12:14.327Z,9.88
2023-03-25T09:14:41.604Z,7.57
2023-03-25T09:17:10.365Z,14.00
2023-03-25T09:19:38.114Z,8.80
2023-03-25T09:22:06.796Z,9.70
2023-03-25T09:24:34.359Z,8.20
2023-03-25T09:27:03.247Z,7.80
2023-03-25T09:29:30.509Z,13.48
2023-03-25T09:31:58.508Z,11.43
2023-03-25T09:34:27.116Z,7.70
2023-03-25T09:36:56.145Z,7.18
2023-03-25T09:39:23.883Z,7.03
2023-03-25T09:42:28.510Z,8.98
2023-03-25T09:45:23.634Z,7.20
2023-03-25T09:48:17.107Z,9.30
2023-03-25T09:50:46.242Z,8.90
2023-03-25T09:53:31.663Z,9.15
2023-03-25T09:56:00.629Z,11.20
2023-03-25T09:58:42.064Z,7.68
2023-03-25T10:01:21.391Z,8.93
2023-03-25T10:04:39.257Z,11.63
2023-03-25T10:07:10.172Z,8.10
2023-03-25T10:09:49.110Z,11.10
2023-03-25T10:12:37.991Z,10.00
2023-03-25T10:15:25.412Z,11.13
2023-03-25T10:18:04.269Z,9.15
2023-03-25T10:20:51.702Z,7.10
2023-03-25T10:24:00.416Z,9.25
2023-03-25T10:27:04.119Z,6.80
2023-03-25T10:29:58.037Z,7.68
2023-03-25T10:32:59.762Z,10.07
2023-03-25T10:35:39.555Z,7.95
2023-03-25T10:38:26.925Z,6.63
2023-03-25T10:41:20.025Z,7.63
2023-03-25T10:43:47.073Z,7.97
2023-03-25T10:46:46.864Z,8.20
2023-03-25T10:49:23.958Z,10.68
2023-03-25T10:51:57.667Z,6.75
2023-03-25T10:54:32.095Z,9.55
2023-03-25T10:57:05.233Z,7.00
2023-03-25T10:59:50.279Z,9.35
2023-03-25T11:02:27.539Z,6.82
2023-03-25T11:05:00.311Z,10.18
2023-03-25T11:07:37.535Z,7.30
2023-03-25T11:10:32.165Z,8.50
2023-03-25T11:13:04.005Z,7.57
2023-03-25T11:15:39.067Z,9.52
2023-03-25T11:18:27.455Z,6.18
2023-03-25T11:21:09.568Z,6.85
2023-03-25T11:23:43.406Z,5.65
2023-03-25T11:26:23.748Z,6.90
2023-03-25T11:29:01.017Z,8.05
2023-03-25T11:31:33.377Z,5.88
2023-03-25T11:34:09.142Z,5.82
2023-03-25T11:36:47.448Z,6.38
2023-03-25T11:39:24.263Z,8.88
2023-03-25T11:41:52.884Z,4.70
2023-03-25T11:44:33.064Z,5.45
2023-03-25T11:47:09.710Z,8.23
2023-03-25T11:49:41.512Z,16.85
2023-03-25T11:52:24.367Z,35.13
2023-03-25T11:54:55.380Z,9.80
2023-03-25T11:57:32.809Z,13.98
2023-03-25T12:00:12.334Z,3.92
2023-03-25T12:02:41.172Z,6.50
2023-03-25T12:05:08.217Z,4.57
2023-03-25T12:07:51.539Z,6.57
2023-03-25T12:10:34.764Z,5.07
2023-03-25T12:13:27.364Z,9.02
2023-03-25T12:16:03.159Z,7.43
2023-03-25T12:19:21.074Z,5.95
2023-03-25T12:22:14.870Z,6.35
2023-03-25T12:25:08.334Z,6.07
2023-03-25T12:28:31.014Z,8.98
2023-03-25T12:31:51.415Z,13.82
2023-03-25T12:35:12.221Z,6.45
2023-03-25T12:37:48.091Z,8.07
2023-03-25T12:41:27.239Z,11.98
2023-03-25T12:44:14.076Z,9.80
2023-03-25T12:47:04.244Z,6.35
2023-03-25T12:50:01.991Z,4.88
2023-03-25T12:53:04.375Z,4.30
2023-03-25T12:56:23.822Z,5.55
2023-03-25T12:59:02.527Z,5.85
2023-03-25T13:01:58.771Z,8.45
2023-03-25T13:04:52.471Z,3.88
2023-03-25T13:07:28.736Z,7.95
2023-03-25T13:10:20.004Z,5.60
2023-03-25T13:12:58.053Z,4.85
2023-03-25T13:15:44.214Z,4.50
2023-03-25T13:18:26.146Z,7.63
2023-03-25T13:21:27.648Z,6.55
2023-03-25T13:24:23.292Z,8.43
2023-03-25T13:26:55.051Z,8.32
2023-03-25T13:29:46.741Z,8.52
2023-03-25T13:32:22.598Z,10.85
2023-03-25T13:35:02.290Z,7.15
2023-03-25T13:37:53.110Z,8.18
2023-03-25T13:40:31.652Z,8.18
2023-03-25T13:43:13.441Z,7.47
2023-03-25T13:46:05.678Z,10.38
2023-03-25T13:48:54.741Z,7.00
2023-03-25T13:51:22.444Z,8.30
2023-03-25T13:54:29.136Z,12.13
2023-03-25T13:57:22.907Z,5.75
2023-03-25T14:00:18.909Z,9.18
2023-03-25T14:03:16.983Z,6.38
2023-03-25T14:06:10.521Z,5.57
2023-03-25T14:09:23.430Z,4.30
2023-03-25T14:12:16.137Z,12.07
2023-03-25T14:14:58.191Z,9.13
2023-03-25T14:17:26.857Z,4.90
2023-03-25T14:19:58.376Z,5.50
2023-03-25T14:22:35.387Z,4.47
2023-03-25T14:25:02.675Z,6.57
2023-03-25T14:27:34.994Z,5.03
2023-03-25T14:30:26.855Z,5.78
2023-03-25T14:32:58.929Z,8.38
2023-03-25T14:35:32.703Z,5.55
2023-03-25T14:38:08.925Z,4.07
2023-03-25T14:43:40.409Z,6.72
2023-03-25T14:46:14.626Z,5.65
2023-03-25T14:48:50.276Z,4.53
2023-03-25T14:51:41.208Z,7.45
2023-03-25T14:54:31.786Z,5.00
2023-03-25T14:57:22.903Z,7.75
2023-03-25T14:59:54.248Z,7.68
2023-03-25T15:02:33.806Z,4.88
2023-03-25T15:05:15.234Z,3.38
2023-03-25T15:08:00.195Z,2.08
2023-03-25T15:11:06.592Z,2.85
2023-03-25T15:13:42.367Z,1.95
2023-03-25T15:16:38.586Z,2.28
2023-03-25T15:19:10.957Z,1.58
2023-03-25T15:22:07.718Z,2.10
2023-03-25T15:24:38.103Z,3.55
2023-03-25T15:27:34.087Z,1.65
2023-03-25T15:30:37.902Z,1.48
2023-03-25T15:33:11.231Z,2.28
2023-03-25T15:35:50.447Z,1.77
2023-03-25T15:38:38.844Z,0.70
2023-03-25T15:41:12.969Z,0.60
2023-03-25T15:44:25.409Z,0.70
2023-03-25T15:47:49.147Z,0.85
2023-03-25T15:50:49.871Z,1.42
2023-03-25T15:53:43.397Z,1.80
2023-03-25T15:56:42.358Z,3.65
2023-03-25T15:59:41.719Z,2.83
2023-03-25T16:02:33.260Z,2.78
2023-03-25T16:05:01.165Z,3.67
2023-03-25T16:07:33.059Z,1.50
2023-03-25T16:10:19.588Z,4.97
2023-03-25T16:12:50.201Z,2.55
2023-03-25T16:15:26.206Z,3.05
2023-03-25T16:17:54.318Z,4.30
2023-03-25T16:20:28.668Z,3.35
2023-03-25T16:22:59.777Z,3.42
2023-03-25T16:25:41.527Z,4.45
2023-03-25T16:28:18.275Z,3.67
2023-03-25T16:30:53.589Z,4.05
2023-03-25T16:33:31.668Z,4.05
2023-03-25T16:36:19.070Z,2.28
2023-03-25T16:38:46.538Z,5.20
2023-03-25T16:41:15.298Z,5.47
2023-03-25T16:43:43.708Z,4.10
2023-03-25T16:46:21.604Z,4.97
2023-03-25T16:48:53.841Z,5.15
2023-03-25T16:51:32.204Z,7.78
2023-03-25T16:53:59.639Z,7.15
2023-03-25T16:56:32.778Z,7.50
2023-03-25T16:59:22.791Z,11.23
2023-03-25T17:01:59.661Z,6.75
2023-03-25T17:04:47.413Z,7.85
2023-03-25T17:07:21.092Z,7.07
2023-03-25T17:09:52.900Z,8.60
2023-03-25T17:12:23.850Z,5.55
2023-03-25T17:14:58.561Z,8.77
2023-03-25T17:17:53.568Z,4.72
2023-03-25T17:20:37.469Z,8.68
2023-03-25T17:23:18.121Z,7.07
2023-03-25T17:26:07.447Z,6.90
2023-03-25T17:28:58.222Z,6.68
2023-03-25T17:31:30.775Z,6.20
2023-03-25T17:34:21.648Z,7.05
2023-03-25T17:36:57.890Z,8.00
2023-03-25T17:39:29.203Z,5.05
2023-03-25T17:42:01.373Z,8.43
2023-03-25T17:44:41.395Z,11.77
2023-03-25T17:47:14.657Z,8.85
2023-03-25T17:49:42.130Z,7.00
2023-03-25T17:52:09.609Z,11.05
2023-03-25T17:54:37.345Z,9.48
2023-03-25T17:57:12.668Z,8.90
2023-03-25T17:59:39.796Z,11.32
2023-03-25T18:02:16.523Z,11.73
2023-03-25T18:04:43.974Z,13.43
2023-03-25T18:07:11.162Z,12.13
2023-03-25T18:09:39.544Z,15.15
2023-03-25T18:12:07.129Z,14.57
2023-03-25T18:14:35.214Z,14.40
2023-03-25T18:17:04.155Z,13.27
2023-03-25T18:19:32.222Z,14.90
2023-03-25T18:22:13.886Z,17.75
2023-03-25T18:24:47.050Z,16.27
2023-03-25T18:27:14.692Z,14.80
2023-03-25T18:29:42.192Z,17.58
2023-03-25T18:32:09.389Z,16.48
2023-03-25T18:34:36.538Z,15.23
2023-03-25T18:37:03.868Z,16.30
2023-03-25T18:39:32.783Z,13.43
2023-03-25T18:41:59.927Z,14.20
2023-03-25T18:44:28.655Z,15.03
2023-03-25T18:46:55.834Z,13.05
2023-03-25T18:49:23.344Z,12.50
2023-03-25T18:51:50.733Z,11.05
2023-03-25T18:54:18.466Z,8.88
2023-03-25T18:56:45.986Z,8.18
2023-03-25T18:59:21.201Z,9.63
2023-03-25T19:01:48.314Z,7.82
2023-03-25T19:04:15.531Z,6.70
2023-03-25T19:06:43.048Z,9.77
2023-03-25T19:09:18.842Z,6.63
2023-03-25T19:11:47.270Z,6.87
2023-03-25T19:14:14.378Z,6.23
2023-03-25T19:16:44.313Z,6.47
2023-03-25T19:19:15.881Z,6.07
2023-03-25T19:21:42.890Z,6.88
2023-03-25T19:24:10.086Z,4.72
2023-03-25T19:26:39.346Z,9.83
2023-03-25T19:29:07.041Z,4.22
2023-03-25T19:31:34.671Z,7.88
2023-03-25T19:34:02.373Z,5.25
2023-03-25T19:36:34.651Z,5.25
2023-03-25T19:39:06.084Z,4.78
2023-03-25T19:41:35.023Z,5.93
2023-03-25T19:44:02.400Z,6.47
2023-03-25T19:46:31.790Z,10.65
2023-03-25T19:48:58.915Z,13.45
2023-03-25T19:51:25.966Z,6.93
2023-03-25T19:53:53.160Z,6.18
2023-03-25T19:56:20.228Z,4.47
2023-03-25T19:58:47.367Z,3.87
2023-03-25T20:01:14.589Z,4.63
2023-03-25T20:03:42.224Z,4.70
2023-03-25T20:06:09.538Z,4.70
2023-03-25T20:08:36.774Z,4.27
2023-03-25T20:11:12.055Z,7.17
2023-03-25T20:13:39.678Z,3.73
2023-03-25T20:16:08.472Z,4.33
2023-03-25T20:18:35.890Z,4.70
2023-03-25T20:21:06.582Z,5.07
2023-03-25T20:23:33.855Z,6.83
2023-03-25T20:26:01.471Z,4.57
2023-03-25T20:28:31.356Z,8.70
2023-03-25T20:30:58.668Z,4.57
2023-03-25T20:33:28.304Z,5.50
2023-03-25T20:35:55.945Z,4.30
2023-03-25T20:38:23.285Z,4.60
2023-03-25T20:40:54.714Z,6.77
2023-03-25T20:43:22.350Z,5.25
2023-03-25T20:45:53.913Z,7.33
2023-03-25T20:48:22.192Z,7.07
2023-03-25T20:50:49.946Z,6.43
2023-03-25T20:53:17.168Z,7.43
2023-03-25T20:55:45.116Z,7.60
2023-03-25T20:58:12.861Z,8.20
2023-03-25T21:00:40.009Z,12.40
2023-03-25T21:03:07.648Z,10.53
2023-03-25T21:05:39.306Z,12.27
2023-03-25T21:08:06.539Z,12.40
2023-03-25T21:10:33.977Z,9.87
2023-03-25T21:13:01.187Z,15.17
2023-03-25T21:15:28.742Z,13.60
2023-03-25T21:17:56.103Z,11.83
2023-03-25T21:20:24.129Z,16.70
2023-03-25T21:22:51.502Z,13.80
2023-03-25T21:25:18.916Z,15.40
2023-03-25T21:27:46.876Z,16.33
2023-03-25T21:30:15.222Z,12.43
2023-03-25T21:32:43.074Z,26.00
2023-03-25T21:35:10.647Z,15.63
2023-03-25T21:37:39.570Z,14.17
2023-03-25T21:40:11.093Z,16.97
2023-03-25T21:42:42.997Z,12.50
2023-03-25T21:45:13.667Z,18.10
2023-03-25T21:47:41.391Z,18.20
2023-03-25T21:50:11.779Z,14.10
2023-03-25T21:52:43.547Z,14.03
2023-03-25T21:55:11.362Z,17.30
2023-03-25T21:57:39.724Z,16.67
2023-03-25T22:00:08.613Z,14.67
2023-03-25T22:02:35.975Z,12.07
2023-03-25T22:05:03.924Z,16.93
2023-03-25T22:07:31.270Z,15.83
2023-03-25T22:09:58.885Z,16.93
2023-03-25T22:12:26.222Z,18.10
2023-03-25T22:14:53.321Z,16.77
2023-03-25T22:17:20.445Z,15.13
2023-03-25T22:19:48.943Z,16.60
2023-03-25T22:22:19.315Z,15.50
2023-03-25T22:24:47.097Z,16.73
2023-03-25T22:27:14.577Z,17.13
2023-03-25T22:29:45.123Z,16.80
2023-03-25T22:32:12.207Z,14.77
2023-03-25T22:34:39.703Z,13.20
2023-03-25T22:37:06.904Z,12.37
2023-03-25T22:39:34.020Z,14.93
2023-03-25T22:42:01.334Z,15.17
2023-03-25T22:44:28.948Z,14.90
2023-03-25T22:46:56.403Z,14.57
2023-03-25T22:49:23.586Z,15.27
2023-03-25T22:51:51.382Z,14.13
2023-03-25T22:54:18.696Z,14.90
2023-03-25T22:56:46.097Z,12.30
2023-03-25T22:59:14.849Z,14.43
2023-03-25T23:01:43.247Z,13.37
2023-03-25T23:04:10.792Z,15.57
2023-03-25T23:06:38.738Z,14.43
2023-03-25T23:09:08.832Z,14.37
2023-03-25T23:11:37.393Z,16.90
2023-03-25T23:14:09.280Z,16.33
2023-03-25T23:16:36.915Z,17.17
2023-03-25T23:19:06.877Z,13.53
2023-03-25T23:21:34.684Z,16.40
2023-03-25T23:24:04.032Z,19.03
2023-03-25T23:26:40.836Z,15.17
2023-03-25T23:29:11.694Z,11.90
2023-03-25T23:31:43.333Z,19.40
2023-03-25T23:34:16.806Z,15.27
2023-03-25T23:36:45.439Z,12.60
2023-03-25T23:39:17.207Z,14.00
2023-03-25T23:41:44.349Z,12.07
2023-03-25T23:44:11.852Z,15.77
2023-03-25T23:46:39.100Z,13.07
2023-03-25T23:49:06.728Z,13.43
2023-03-25T23:51:38.373Z,10.57
2023-03-25T23:54:09.769Z,11.83
2023-03-25T23:56:38.007Z,12.43
2023-03-25T23:59:06.672Z,12.33
